Las Vegas, Nevada
Traffic Map
Current Weather Conditions
Las Vegas, Nevada
Broken Clouds
Broken Clouds
17°
Feels Like: 17°
Wind Chill: 17° Ceiling: 18000
Heat Index: 17° Visibility: 10mi
Dew Point: Wind: 16mph
Humidity: 43% Direction: 180° (S)
Pressure: 29.77in Gusts: 0mph
Raw Report DataKLAS 221056Z 18014KT 10SM SCT150 BKN180 17/04 A2977 RMK AO2 SLP062 T01720044
Traffic Incident Summary
Active as of:
Severity:
Category:
InformationThere was an issue retrieving the traffic information for this location. Please try a different location or try again shortly.
Advertisements
Track Severe Weather on mobile